sensor_id;sensor_type;location;lat;lon;timestamp;pressure;altitude;pressure_sealevel;temperature;humidity
29433;BME280;16405;53.964;13.448;2022-10-17T00:00:54;101825.72;;;7.73;100.00
29433;BME280;16405;53.964;13.448;2022-10-17T00:03:20;101816.09;;;7.74;100.00
29433;BME280;16405;53.964;13.448;2022-10-17T00:05:50;101829.13;;;7.77;100.00
29433;BME280;16405;53.964;13.448;2022-10-17T00:08:18;101830.88;;;7.78;100.00
29433;BME280;16405;53.964;13.448;2022-10-17T00:10:45;101841.28;;;7.81;100.00
29433;BME280;16405;53.964;13.448;2022-10-17T00:13:21;101843.06;;;7.80;100.00
29433;BME280;16405;53.964;13.448;2022-10-17T00:15:47;101835.28;;;7.74;100.00
29433;BME280;16405;53.964;13.448;2022-10-17T00:18:13;101828.38;;;7.69;100.00
29433;BME280;16405;53.964;13.448;2022-10-17T00:20:38;101838.09;;;7.64;100.00
29433;BME280;16405;53.964;13.448;2022-10-17T00:23:04;101841.75;;;7.53;100.00
29433;BME280;16405;53.964;13.448;2022-10-17T00:25:35;101834.81;;;7.49;100.00
29433;BME280;16405;53.964;13.448;2022-10-17T00:28:02;101832.19;;;7.49;100.00
29433;BME280;16405;53.964;13.448;2022-10-17T00:30:27;101837.44;;;7.51;100.00
29433;BME280;16405;53.964;13.448;2022-10-17T00:32:53;101843.50;;;7.53;100.00
29433;BME280;16405;53.964;13.448;2022-10-17T00:35:20;101846.13;;;7.54;100.00
29433;BME280;16405;53.964;13.448;2022-10-17T00:37:50;101849.50;;;7.59;100.00
29433;BME280;16405;53.964;13.448;2022-10-17T00:40:19;101846.03;;;7.60;100.00
29433;BME280;16405;53.964;13.448;2022-10-17T00:42:45;101845.84;;;7.71;100.00
29433;BME280;16405;53.964;13.448;2022-10-17T00:45:28;101845.78;;;7.74;100.00
29433;BME280;16405;53.964;13.448;2022-10-17T00:48:06;101839.72;;;7.71;100.00
29433;BME280;16405;53.964;13.448;2022-10-17T00:50:41;101832.69;;;7.73;100.00
29433;BME280;16405;53.964;13.448;2022-10-17T00:53:08;101843.00;;;7.84;100.00
29433;BME280;16405;53.964;13.448;2022-10-17T00:55:48;101843.72;;;7.93;100.00
29433;BME280;16405;53.964;13.448;2022-10-17T00:58:14;101851.38;;;8.04;100.00
29433;BME280;16405;53.964;13.448;2022-10-17T01:00:42;101840.50;;;8.24;100.00
29433;BME280;16405;53.964;13.448;2022-10-17T01:03:11;101842.16;;;8.30;100.00
29433;BME280;16405;53.964;13.448;2022-10-17T01:05:38;101859.63;;;8.31;100.00
29433;BME280;16405;53.964;13.448;2022-10-17T01:08:06;101868.53;;;8.22;100.00
29433;BME280;16405;53.964;13.448;2022-10-17T01:13:39;101851.84;;;8.26;100.00
29433;BME280;16405;53.964;13.448;2022-10-17T01:16:21;101853.63;;;8.24;100.00
29433;BME280;16405;53.964;13.448;2022-10-17T01:25:23;101856.72;;;8.48;100.00
29433;BME280;16405;53.964;13.448;2022-10-17T01:31:35;101847.78;;;8.56;100.00
29433;BME280;16405;53.964;13.448;2022-10-17T01:37:27;101846.84;;;8.60;100.00
29433;BME280;16405;53.964;13.448;2022-10-17T01:40:35;101847.44;;;8.73;100.00
29433;BME280;16405;53.964;13.448;2022-10-17T01:43:18;101846.31;;;8.85;100.00
29433;BME280;16405;53.964;13.448;2022-10-17T01:46:00;101843.34;;;9.00;100.00
29433;BME280;16405;53.964;13.448;2022-10-17T01:48:36;101842.13;;;9.15;100.00
29433;BME280;16405;53.964;13.448;2022-10-17T01:51:27;101844.47;;;9.29;100.00
29433;BME280;16405;53.964;13.448;2022-10-17T01:54:20;101844.22;;;9.40;100.00
29433;BME280;16405;53.964;13.448;2022-10-17T01:56:55;101849.25;;;9.49;100.00
29433;BME280;16405;53.964;13.448;2022-10-17T01:59:30;101841.19;;;9.57;100.00
29433;BME280;16405;53.964;13.448;2022-10-17T02:01:59;101843.69;;;9.61;100.00
29433;BME280;16405;53.964;13.448;2022-10-17T02:04:27;101842.66;;;9.67;100.00
29433;BME280;16405;53.964;13.448;2022-10-17T02:07:12;101854.78;;;9.74;100.00
29433;BME280;16405;53.964;13.448;2022-10-17T02:09:39;101852.84;;;9.81;100.00
29433;BME280;16405;53.964;13.448;2022-10-17T02:18:01;101842.88;;;9.94;100.00
29433;BME280;16405;53.964;13.448;2022-10-17T02:26:27;101827.19;;;9.89;100.00
29433;BME280;16405;53.964;13.448;2022-10-17T02:29:20;101828.13;;;9.86;100.00
29433;BME280;16405;53.964;13.448;2022-10-17T02:31:57;101815.09;;;9.82;100.00
29433;BME280;16405;53.964;13.448;2022-10-17T02:34:40;101817.72;;;9.82;100.00
29433;BME280;16405;53.964;13.448;2022-10-17T02:37:14;101830.88;;;9.82;100.00
29433;BME280;16405;53.964;13.448;2022-10-17T02:39:41;101822.03;;;9.84;100.00
29433;BME280;16405;53.964;13.448;2022-10-17T02:42:15;101822.94;;;9.85;100.00
29433;BME280;16405;53.964;13.448;2022-10-17T02:44:43;101827.28;;;9.86;100.00
29433;BME280;16405;53.964;13.448;2022-10-17T02:47:56;101818.53;;;9.85;100.00
29433;BME280;16405;53.964;13.448;2022-10-17T02:53:28;101814.63;;;10.00;100.00
29433;BME280;16405;53.964;13.448;2022-10-17T02:56:02;101823.09;;;10.12;100.00
29433;BME280;16405;53.964;13.448;2022-10-17T02:58:33;101831.66;;;10.20;100.00
29433;BME280;16405;53.964;13.448;2022-10-17T03:01:00;101829.75;;;10.25;100.00
29433;BME280;16405;53.964;13.448;2022-10-17T03:03:30;101830.44;;;10.33;100.00
29433;BME280;16405;53.964;13.448;2022-10-17T03:05:58;101832.06;;;10.37;100.00
29433;BME280;16405;53.964;13.448;2022-10-17T03:08:24;101838.00;;;10.45;100.00
29433;BME280;16405;53.964;13.448;2022-10-17T03:10:50;101845.75;;;10.50;100.00
29433;BME280;16405;53.964;13.448;2022-10-17T03:13:17;101846.44;;;10.57;100.00
29433;BME280;16405;53.964;13.448;2022-10-17T03:15:46;101851.56;;;10.61;100.00
29433;BME280;16405;53.964;13.448;2022-10-17T03:18:15;101848.97;;;10.60;100.00
29433;BME280;16405;53.964;13.448;2022-10-17T03:20:41;101846.34;;;10.60;100.00
29433;BME280;16405;53.964;13.448;2022-10-17T03:23:07;101847.16;;;10.62;100.00
29433;BME280;16405;53.964;13.448;2022-10-17T03:25:32;101848.84;;;10.64;100.00
29433;BME280;16405;53.964;13.448;2022-10-17T03:27:58;101852.28;;;10.66;100.00
29433;BME280;16405;53.964;13.448;2022-10-17T03:30:32;101863.63;;;10.70;100.00
29433;BME280;16405;53.964;13.448;2022-10-17T03:32:58;101862.69;;;10.71;100.00
29433;BME280;16405;53.964;13.448;2022-10-17T03:35:25;101853.09;;;10.70;100.00
29433;BME280;16405;53.964;13.448;2022-10-17T03:37:59;101850.31;;;10.75;100.00
29433;BME280;16405;53.964;13.448;2022-10-17T03:40:24;101852.06;;;10.76;100.00
29433;BME280;16405;53.964;13.448;2022-10-17T03:42:50;101848.59;;;10.74;100.00
29433;BME280;16405;53.964;13.448;2022-10-17T03:45:16;101845.00;;;10.76;100.00
29433;BME280;16405;53.964;13.448;2022-10-17T03:47:42;101843.16;;;10.80;100.00
29433;BME280;16405;53.964;13.448;2022-10-17T03:50:10;101848.34;;;10.81;100.00
29433;BME280;16405;53.964;13.448;2022-10-17T03:52:39;101836.97;;;10.81;100.00
29433;BME280;16405;53.964;13.448;2022-10-17T03:55:05;101844.00;;;10.80;100.00
29433;BME280;16405;53.964;13.448;2022-10-17T03:57:34;101837.94;;;10.77;100.00
29433;BME280;16405;53.964;13.448;2022-10-17T04:00:04;101841.38;;;10.80;100.00
29433;BME280;16405;53.964;13.448;2022-10-17T04:02:30;101848.31;;;10.83;100.00
29433;BME280;16405;53.964;13.448;2022-10-17T04:04:55;101837.09;;;10.76;100.00
29433;BME280;16405;53.964;13.448;2022-10-17T04:07:21;101832.69;;;10.77;100.00
29433;BME280;16405;53.964;13.448;2022-10-17T04:09:47;101828.28;;;10.77;100.00
29433;BME280;16405;53.964;13.448;2022-10-17T04:12:13;101813.25;;;10.81;100.00
29433;BME280;16405;53.964;13.448;2022-10-17T04:14:38;101814.91;;;10.83;100.00
29433;BME280;16405;53.964;13.448;2022-10-17T04:17:10;101826.25;;;10.87;100.00
29433;BME280;16405;53.964;13.448;2022-10-17T04:19:36;101813.03;;;10.88;100.00
29433;BME280;16405;53.964;13.448;2022-10-17T04:22:01;101819.00;;;10.94;100.00
29433;BME280;16405;53.964;13.448;2022-10-17T04:24:28;101814.59;;;10.94;100.00
29433;BME280;16405;53.964;13.448;2022-10-17T04:26:54;101822.31;;;11.00;100.00
29433;BME280;16405;53.964;13.448;2022-10-17T04:29:25;101826.63;;;11.03;100.00
29433;BME280;16405;53.964;13.448;2022-10-17T04:31:51;101821.28;;;11.06;100.00
29433;BME280;16405;53.964;13.448;2022-10-17T04:34:17;101821.34;;;11.03;100.00
29433;BME280;16405;53.964;13.448;2022-10-17T04:36:43;101825.53;;;11.10;100.00
29433;BME280;16405;53.964;13.448;2022-10-17T04:39:10;101829.75;;;11.16;100.00
29433;BME280;16405;53.964;13.448;2022-10-17T04:41:38;101829.56;;;11.22;100.00
29433;BME280;16405;53.964;13.448;2022-10-17T04:44:06;101826.88;;;11.23;100.00
29433;BME280;16405;53.964;13.448;2022-10-17T04:46:33;101824.94;;;11.28;100.00
29433;BME280;16405;53.964;13.448;2022-10-17T04:48:59;101825.72;;;11.32;100.00
29433;BME280;16405;53.964;13.448;2022-10-17T04:51:25;101825.56;;;11.37;100.00
29433;BME280;16405;53.964;13.448;2022-10-17T04:53:50;101817.50;;;11.41;100.00
29433;BME280;16405;53.964;13.448;2022-10-17T04:56:22;101821.91;;;11.41;100.00
29433;BME280;16405;53.964;13.448;2022-10-17T04:58:49;101817.63;;;11.38;100.00
29433;BME280;16405;53.964;13.448;2022-10-17T05:01:18;101808.88;;;11.36;100.00
29433;BME280;16405;53.964;13.448;2022-10-17T05:03:50;101808.72;;;11.41;100.00
29433;BME280;16405;53.964;13.448;2022-10-17T05:06:22;101800.97;;;11.36;100.00
29433;BME280;16405;53.964;13.448;2022-10-17T05:08:52;101810.59;;;11.37;100.00
29433;BME280;16405;53.964;13.448;2022-10-17T05:11:24;101807.81;;;11.42;100.00
29433;BME280;16405;53.964;13.448;2022-10-17T05:14:00;101802.34;;;11.48;100.00
29433;BME280;16405;53.964;13.448;2022-10-17T05:16:27;101806.72;;;11.49;100.00
29433;BME280;16405;53.964;13.448;2022-10-17T05:18:56;101806.59;;;11.52;100.00
29433;BME280;16405;53.964;13.448;2022-10-17T05:21:27;101808.31;;;11.53;100.00
29433;BME280;16405;53.964;13.448;2022-10-17T05:23:53;101806.28;;;11.61;100.00
29433;BME280;16405;53.964;13.448;2022-10-17T05:26:20;101810.53;;;11.65;100.00
29433;BME280;16405;53.964;13.448;2022-10-17T05:28:46;101813.09;;;11.68;100.00
29433;BME280;16405;53.964;13.448;2022-10-17T05:31:12;101824.22;;;11.77;100.00
29433;BME280;16405;53.964;13.448;2022-10-17T05:33:41;101818.91;;;11.78;100.00
29433;BME280;16405;53.964;13.448;2022-10-17T05:36:07;101817.94;;;11.81;100.00
29433;BME280;16405;53.964;13.448;2022-10-17T05:38:36;101819.59;;;11.83;100.00
29433;BME280;16405;53.964;13.448;2022-10-17T05:41:05;101822.22;;;11.83;100.00
29433;BME280;16405;53.964;13.448;2022-10-17T05:43:34;101822.06;;;11.89;100.00
29433;BME280;16405;53.964;13.448;2022-10-17T05:46:04;101821.91;;;11.94;100.00
29433;BME280;16405;53.964;13.448;2022-10-17T05:48:30;101817.38;;;11.98;100.00
29433;BME280;16405;53.964;13.448;2022-10-17T05:51:02;101819.84;;;12.02;100.00
29433;BME280;16405;53.964;13.448;2022-10-17T05:53:34;101814.78;;;11.96;100.00
29433;BME280;16405;53.964;13.448;2022-10-17T05:56:07;101815.69;;;11.97;100.00
29433;BME280;16405;53.964;13.448;2022-10-17T05:58:33;101815.38;;;12.04;100.00
29433;BME280;16405;53.964;13.448;2022-10-17T06:01:02;101819.66;;;12.08;100.00
29433;BME280;16405;53.964;13.448;2022-10-17T06:03:37;101816.16;;;12.08;100.00
29433;BME280;16405;53.964;13.448;2022-10-17T06:06:14;101815.06;;;12.14;100.00
29433;BME280;16405;53.964;13.448;2022-10-17T06:08:40;101816.66;;;12.18;100.00
29433;BME280;16405;53.964;13.448;2022-10-17T06:11:06;101811.47;;;12.16;100.00
29433;BME280;16405;53.964;13.448;2022-10-17T06:13:32;101817.66;;;12.15;100.00
29433;BME280;16405;53.964;13.448;2022-10-17T06:15:58;101823.06;;;12.12;100.00
29433;BME280;16405;53.964;13.448;2022-10-17T06:18:23;101829.06;;;12.16;100.00
29433;BME280;16405;53.964;13.448;2022-10-17T06:20:52;101827.13;;;12.21;100.00
29433;BME280;16405;53.964;13.448;2022-10-17T06:23:17;101822.84;;;12.18;100.00
29433;BME280;16405;53.964;13.448;2022-10-17T06:25:43;101811.09;;;12.27;100.00
29433;BME280;16405;53.964;13.448;2022-10-17T06:28:09;101812.78;;;12.28;100.00
29433;BME280;16405;53.964;13.448;2022-10-17T06:30:40;101814.44;;;12.30;100.00
29433;BME280;16405;53.964;13.448;2022-10-17T06:33:07;101823.13;;;12.34;100.00
29433;BME280;16405;53.964;13.448;2022-10-17T06:35:33;101823.81;;;12.39;100.00
29433;BME280;16405;53.964;13.448;2022-10-17T06:37:59;101825.91;;;12.31;100.00
29433;BME280;16405;53.964;13.448;2022-10-17T06:40:25;101829.09;;;12.39;100.00
29433;BME280;16405;53.964;13.448;2022-10-17T06:42:50;101833.34;;;13.12;100.00
29433;BME280;16405;53.964;13.448;2022-10-17T06:45:16;101847.69;;;13.73;100.00
29433;BME280;16405;53.964;13.448;2022-10-17T06:47:42;101842.69;;;13.87;100.00
29433;BME280;16405;53.964;13.448;2022-10-17T06:50:08;101845.66;;;14.21;96.70
29433;BME280;16405;53.964;13.448;2022-10-17T06:52:36;101848.22;;;14.82;96.22
29433;BME280;16405;53.964;13.448;2022-10-17T06:55:02;101846.41;;;15.02;91.62
29433;BME280;16405;53.964;13.448;2022-10-17T06:57:28;101835.59;;;14.08;94.58
29433;BME280;16405;53.964;13.448;2022-10-17T06:59:53;101829.69;;;13.61;97.76
29433;BME280;16405;53.964;13.448;2022-10-17T07:02:20;101828.97;;;13.57;99.76
29433;BME280;16405;53.964;13.448;2022-10-17T07:04:48;101821.81;;;13.59;100.00
29433;BME280;16405;53.964;13.448;2022-10-17T07:07:21;101817.38;;;13.60;100.00
29433;BME280;16405;53.964;13.448;2022-10-17T07:09:46;101816.38;;;13.42;100.00
29433;BME280;16405;53.964;13.448;2022-10-17T07:12:12;101820.41;;;13.50;100.00
29433;BME280;16405;53.964;13.448;2022-10-17T07:14:38;101817.75;;;13.50;100.00
29433;BME280;16405;53.964;13.448;2022-10-17T07:17:06;101820.16;;;13.57;100.00
29433;BME280;16405;53.964;13.448;2022-10-17T07:19:34;101818.16;;;13.62;100.00
29433;BME280;16405;53.964;13.448;2022-10-17T07:22:00;101829.75;;;13.80;99.99
29433;BME280;16405;53.964;13.448;2022-10-17T07:24:26;101834.03;;;14.23;98.43
29433;BME280;16405;53.964;13.448;2022-10-17T07:26:52;101841.03;;;15.76;93.60
29433;BME280;16405;53.964;13.448;2022-10-17T07:29:18;101831.28;;;16.11;87.15
29433;BME280;16405;53.964;13.448;2022-10-17T07:31:46;101837.66;;;18.28;78.40
29433;BME280;16405;53.964;13.448;2022-10-17T07:34:13;101833.56;;;19.21;73.43
29433;BME280;16405;53.964;13.448;2022-10-17T07:36:39;101827.69;;;19.96;69.62
29433;BME280;16405;53.964;13.448;2022-10-17T07:39:04;101813.88;;;20.41;67.63
29433;BME280;16405;53.964;13.448;2022-10-17T07:41:30;101810.06;;;20.82;66.10
29433;BME280;16405;53.964;13.448;2022-10-17T07:44:00;101815.53;;;21.41;64.37
29433;BME280;16405;53.964;13.448;2022-10-17T07:46:26;101804.81;;;21.77;63.22
29433;BME280;16405;53.964;13.448;2022-10-17T07:48:52;101809.13;;;22.02;61.93
29433;BME280;16405;53.964;13.448;2022-10-17T07:51:17;101810.38;;;22.20;61.75
29433;BME280;16405;53.964;13.448;2022-10-17T07:53:44;101813.06;;;22.20;61.09
29433;BME280;16405;53.964;13.448;2022-10-17T07:56:10;101816.97;;;22.16;61.00
29433;BME280;16405;53.964;13.448;2022-10-17T07:58:37;101803.00;;;21.77;61.63
29433;BME280;16405;53.964;13.448;2022-10-17T08:01:10;101818.00;;;21.91;61.02
29433;BME280;16405;53.964;13.448;2022-10-17T08:03:40;101812.75;;;21.89;60.73
29433;BME280;16405;53.964;13.448;2022-10-17T08:06:06;101810.31;;;21.86;60.51
29433;BME280;16405;53.964;13.448;2022-10-17T08:08:34;101801.97;;;21.56;61.31
29433;BME280;16405;53.964;13.448;2022-10-17T08:11:09;101806.41;;;21.20;61.86
29433;BME280;16405;53.964;13.448;2022-10-17T08:13:40;101791.25;;;21.56;61.22
29433;BME280;16405;53.964;13.448;2022-10-17T08:16:10;101790.00;;;20.63;63.04
29433;BME280;16405;53.964;13.448;2022-10-17T08:18:37;101789.09;;;20.00;64.36
29433;BME280;16405;53.964;13.448;2022-10-17T08:21:06;101794.38;;;19.62;66.24
29433;BME280;16405;53.964;13.448;2022-10-17T08:23:33;101789.41;;;19.96;66.01
29433;BME280;16405;53.964;13.448;2022-10-17T08:26:02;101786.66;;;20.73;64.70
29433;BME280;16405;53.964;13.448;2022-10-17T08:28:28;101785.78;;;21.09;63.33
29433;BME280;16405;53.964;13.448;2022-10-17T08:31:05;101779.63;;;21.20;63.06
29433;BME280;16405;53.964;13.448;2022-10-17T08:33:31;101782.25;;;20.84;64.01
29433;BME280;16405;53.964;13.448;2022-10-17T08:35:59;101776.50;;;21.02;64.10
29433;BME280;16405;53.964;13.448;2022-10-17T08:38:29;101774.59;;;21.15;63.76
29433;BME280;16405;53.964;13.448;2022-10-17T08:41:06;101784.25;;;21.53;63.03
29433;BME280;16405;53.964;13.448;2022-10-17T08:46:35;101773.81;;;21.26;63.63
29433;BME280;16405;53.964;13.448;2022-10-17T08:49:13;101771.34;;;20.99;64.14
29433;BME280;16405;53.964;13.448;2022-10-17T08:51:50;101773.22;;;21.09;64.76
29433;BME280;16405;53.964;13.448;2022-10-17T08:54:45;101764.56;;;21.30;63.83
29433;BME280;16405;53.964;13.448;2022-10-17T08:57:14;101774.19;;;21.33;63.85
29433;BME280;16405;53.964;13.448;2022-10-17T08:59:42;101773.56;;;21.29;64.25
29433;BME280;16405;53.964;13.448;2022-10-17T09:03:01;101766.06;;;21.34;64.35
29433;BME280;16405;53.964;13.448;2022-10-17T09:06:22;101773.97;;;21.71;64.19
29433;BME280;16405;53.964;13.448;2022-10-17T09:12:30;101758.34;;;21.54;65.11
29433;BME280;16405;53.964;13.448;2022-10-17T09:18:15;101742.03;;;20.97;67.09
29433;BME280;16405;53.964;13.448;2022-10-17T09:21:04;101739.72;;;20.30;68.69
29433;BME280;16405;53.964;13.448;2022-10-17T09:23:46;101740.00;;;19.88;70.35
29433;BME280;16405;53.964;13.448;2022-10-17T09:26:16;101745.91;;;19.94;71.41
29433;BME280;16405;53.964;13.448;2022-10-17T09:28:55;101749.88;;;19.61;72.35
29433;BME280;16405;53.964;13.448;2022-10-17T09:32:14;101739.09;;;19.62;73.17
29433;BME280;16405;53.964;13.448;2022-10-17T09:34:44;101739.69;;;19.80;73.67
29433;BME280;16405;53.964;13.448;2022-10-17T09:37:16;101743.97;;;19.96;73.63
29433;BME280;16405;53.964;13.448;2022-10-17T09:39:44;101737.53;;;20.11;73.26
29433;BME280;16405;53.964;13.448;2022-10-17T09:42:15;101736.44;;;20.26;73.38
29433;BME280;16405;53.964;13.448;2022-10-17T09:45:20;101732.97;;;20.50;73.55
29433;BME280;16405;53.964;13.448;2022-10-17T09:48:27;101726.19;;;20.70;72.53
29433;BME280;16405;53.964;13.448;2022-10-17T09:50:58;101722.25;;;20.87;72.11
29433;BME280;16405;53.964;13.448;2022-10-17T09:53:38;101724.03;;;20.99;71.97
29433;BME280;16405;53.964;13.448;2022-10-17T09:56:17;101727.66;;;20.98;71.92
29433;BME280;16405;53.964;13.448;2022-10-17T09:58:52;101736.19;;;21.03;73.10
29433;BME280;16405;53.964;13.448;2022-10-17T10:01:31;101731.16;;;21.23;72.66
29433;BME280;16405;53.964;13.448;2022-10-17T10:04:17;101723.94;;;21.36;72.55
29433;BME280;16405;53.964;13.448;2022-10-17T10:07:09;101711.06;;;21.41;72.12
29433;BME280;16405;53.964;13.448;2022-10-17T10:09:44;101721.00;;;21.39;72.80
29433;BME280;16405;53.964;13.448;2022-10-17T10:12:29;101723.50;;;21.54;72.36
29433;BME280;16405;53.964;13.448;2022-10-17T10:15:01;101726.69;;;21.70;72.66
29433;BME280;16405;53.964;13.448;2022-10-17T10:17:47;101716.22;;;22.01;71.65
29433;BME280;16405;53.964;13.448;2022-10-17T10:20:39;101717.34;;;22.21;71.65
29433;BME280;16405;53.964;13.448;2022-10-17T10:23:17;101721.47;;;22.13;70.68
29433;BME280;16405;53.964;13.448;2022-10-17T10:25:58;101720.63;;;22.13;70.97
29433;BME280;16405;53.964;13.448;2022-10-17T10:28:38;101721.72;;;22.22;71.61
29433;BME280;16405;53.964;13.448;2022-10-17T10:31:09;101727.47;;;22.28;71.00
29433;BME280;16405;53.964;13.448;2022-10-17T10:33:44;101725.88;;;22.26;70.77
29433;BME280;16405;53.964;13.448;2022-10-17T10:36:10;101721.50;;;22.36;71.12
29433;BME280;16405;53.964;13.448;2022-10-17T10:38:39;101724.06;;;22.38;70.63
29433;BME280;16405;53.964;13.448;2022-10-17T10:41:09;101714.06;;;22.40;70.40
29433;BME280;16405;53.964;13.448;2022-10-17T10:43:48;101711.13;;;22.43;70.01
29433;BME280;16405;53.964;13.448;2022-10-17T10:46:22;101716.72;;;22.51;70.21
29433;BME280;16405;53.964;13.448;2022-10-17T10:49:02;101720.34;;;22.61;70.49
29433;BME280;16405;53.964;13.448;2022-10-17T10:51:40;101710.31;;;22.75;70.12
29433;BME280;16405;53.964;13.448;2022-10-17T10:54:19;101705.66;;;22.77;70.08
29433;BME280;16405;53.964;13.448;2022-10-17T10:56:57;101704.84;;;22.65;70.73
29433;BME280;16405;53.964;13.448;2022-10-17T10:59:50;101694.97;;;22.54;69.96
29433;BME280;16405;53.964;13.448;2022-10-17T11:02:37;101694.06;;;22.32;71.26
29433;BME280;16405;53.964;13.448;2022-10-17T11:05:21;101689.53;;;22.22;71.70
29433;BME280;16405;53.964;13.448;2022-10-17T11:13:43;101696.97;;;21.84;73.55
29433;BME280;16405;53.964;13.448;2022-10-17T11:21:26;101693.31;;;21.63;74.87
29433;BME280;16405;53.964;13.448;2022-10-17T11:24:24;101694.03;;;21.65;74.87
29433;BME280;16405;53.964;13.448;2022-10-17T11:27:00;101694.28;;;21.62;75.46
29433;BME280;16405;53.964;13.448;2022-10-17T11:29:35;101687.84;;;21.64;75.17
29433;BME280;16405;53.964;13.448;2022-10-17T11:32:19;101682.59;;;21.63;76.01
29433;BME280;16405;53.964;13.448;2022-10-17T11:37:33;101668.47;;;21.61;74.64
29433;BME280;16405;53.964;13.448;2022-10-17T11:40:09;101680.28;;;21.58;74.68
29433;BME280;16405;53.964;13.448;2022-10-17T11:43:33;101683.53;;;21.62;74.72
29433;BME280;16405;53.964;13.448;2022-10-17T11:45:48;101674.56;;;21.63;74.21
29433;BME280;16405;53.964;13.448;2022-10-17T11:48:34;101658.09;;;21.67;74.67
29433;BME280;16405;53.964;13.448;2022-10-17T11:51:13;101654.22;;;21.60;75.52
29433;BME280;16405;53.964;13.448;2022-10-17T11:53:56;101653.38;;;21.60;75.28
29433;BME280;16405;53.964;13.448;2022-10-17T11:59:51;101652.75;;;21.56;74.78
29433;BME280;16405;53.964;13.448;2022-10-17T12:02:41;101649.06;;;21.57;74.96
29433;BME280;16405;53.964;13.448;2022-10-17T12:08:31;101641.53;;;21.62;74.59
29433;BME280;16405;53.964;13.448;2022-10-17T12:11:27;101643.84;;;21.67;74.42
29433;BME280;16405;53.964;13.448;2022-10-17T12:14:02;101641.91;;;21.69;74.51
29433;BME280;16405;53.964;13.448;2022-10-17T12:21:26;101635.19;;;21.75;73.73
29433;BME280;16405;53.964;13.448;2022-10-17T12:23:55;101637.28;;;21.82;74.52
29433;BME280;16405;53.964;13.448;2022-10-17T12:26:29;101637.28;;;21.82;73.64
29433;BME280;16405;53.964;13.448;2022-10-17T12:28:56;101633.97;;;21.79;72.57
29433;BME280;16405;53.964;13.448;2022-10-17T12:31:24;101637.28;;;21.82;72.73
29433;BME280;16405;53.964;13.448;2022-10-17T12:33:58;101635.94;;;21.88;72.75
29433;BME280;16405;53.964;13.448;2022-10-17T12:49:49;101629.00;;;22.51;71.95
29433;BME280;16405;53.964;13.448;2022-10-17T12:58:02;101613.91;;;22.39;71.19
29433;BME280;16405;53.964;13.448;2022-10-17T13:00:56;101614.41;;;22.33;72.55
29433;BME280;16405;53.964;13.448;2022-10-17T13:03:27;101608.97;;;22.23;72.42
29433;BME280;16405;53.964;13.448;2022-10-17T13:06:00;101609.06;;;22.22;72.62
29433;BME280;16405;53.964;13.448;2022-10-17T13:08:42;101606.63;;;22.19;73.48
29433;BME280;16405;53.964;13.448;2022-10-17T13:11:09;101597.97;;;22.15;73.43
29433;BME280;16405;53.964;13.448;2022-10-17T13:13:54;101608.59;;;22.17;73.36
29433;BME280;16405;53.964;13.448;2022-10-17T13:16:37;101608.69;;;22.15;73.68
29433;BME280;16405;53.964;13.448;2022-10-17T13:19:21;101606.88;;;22.16;73.88
29433;BME280;16405;53.964;13.448;2022-10-17T13:21:56;101604.78;;;22.19;74.04
29433;BME280;16405;53.964;13.448;2022-10-17T13:24:31;101608.69;;;22.26;74.36
29433;BME280;16405;53.964;13.448;2022-10-17T13:27:01;101606.84;;;22.38;74.16
29433;BME280;16405;53.964;13.448;2022-10-17T13:29:28;101605.69;;;22.52;74.21
29433;BME280;16405;53.964;13.448;2022-10-17T13:32:03;101600.63;;;22.70;73.29
29433;BME280;16405;53.964;13.448;2022-10-17T13:34:32;101602.75;;;22.87;73.11
29433;BME280;16405;53.964;13.448;2022-10-17T13:37:11;101600.75;;;23.01;72.21
29433;BME280;16405;53.964;13.448;2022-10-17T13:39:42;101606.69;;;23.04;71.72
29433;BME280;16405;53.964;13.448;2022-10-17T13:42:37;101604.50;;;22.98;71.44
29433;BME280;16405;53.964;13.448;2022-10-17T13:45:32;101603.31;;;22.91;71.58
29433;BME280;16405;53.964;13.448;2022-10-17T13:48:27;101605.56;;;22.86;72.40
29433;BME280;16405;53.964;13.448;2022-10-17T13:51:09;101598.00;;;22.80;73.19
29433;BME280;16405;53.964;13.448;2022-10-17T13:53:43;101590.47;;;22.73;73.88
29433;BME280;16405;53.964;13.448;2022-10-17T13:58:46;101597.59;;;22.63;73.64
29433;BME280;16405;53.964;13.448;2022-10-17T14:01:13;101586.41;;;22.58;74.25
29433;BME280;16405;53.964;13.448;2022-10-17T14:03:46;101588.63;;;22.53;74.54
29433;BME280;16405;53.964;13.448;2022-10-17T14:08:48;101583.03;;;22.45;75.70
29433;BME280;16405;53.964;13.448;2022-10-17T14:11:36;101580.59;;;22.42;75.55
29433;BME280;16405;53.964;13.448;2022-10-17T14:14:06;101583.44;;;22.40;75.47
29433;BME280;16405;53.964;13.448;2022-10-17T14:16:41;101588.19;;;22.37;75.76
29433;BME280;16405;53.964;13.448;2022-10-17T14:19:32;101579.53;;;22.33;75.92
29433;BME280;16405;53.964;13.448;2022-10-17T14:24:49;101589.94;;;22.15;76.80
29433;BME280;16405;53.964;13.448;2022-10-17T14:27:52;101597.63;;;22.08;77.17
29433;BME280;16405;53.964;13.448;2022-10-17T14:30:31;101590.06;;;22.02;77.86
29433;BME280;16405;53.964;13.448;2022-10-17T14:33:00;101589.72;;;21.96;78.18
29433;BME280;16405;53.964;13.448;2022-10-17T14:35:30;101584.00;;;21.89;78.27
29433;BME280;16405;53.964;13.448;2022-10-17T14:38:04;101582.66;;;21.83;78.61